Aragonit — D5AX4 — position and weather

sailwx.info

Track history (hours):
 
Tides and Currents Weather Stations Pressure Air Temp Water Temp Dewpoint Dewpoint Depression Visibility Wind Speed Wind Dir Waves Ship Positions

Aragonit

Last reported at 2013-Dec-30 23:17 UTC. Time now 2014-Oct-31 05:39 UTC.
Position N 36°24' E 014°20'.
Warning: this ship's position is months out of date.

Length 190 m; draft 12.8 m.

Type: Cargo ship. MMSI: 636092354.

Date/timePositionNaut miles runAvg speedWind from/ knotsBaromVisibWave heightAir tempDewpointWater temp
2013-Dec-30 23:17N 36°24' E 014°20'912.6
2013-Dec-30 22:32N 36°27' E 014°09'1712.3
2013-Dec-30 21:08N 36°33' E 013°49'812.1
2013-Dec-30 20:31N 36°36' E 013°40'5811.7
2013-Dec-30 15:32N 36°58' E 012°32'1511.5
2013-Dec-30 14:16N 37°01' E 012°15'1211.4
2013-Dec-30 13:14N 37°05' E 012°01'811.5
2013-Dec-30 12:32N 37°07' E 011°51'1111.7
2013-Dec-30 11:33N 37°12' E 011°38'1212.0
2013-Dec-30 10:31N 37°17' E 011°24'1212.3
2013-Dec-30 09:32N 37°22' E 011°10'  
Track history (hours):
 
Tides and Currents Weather Stations Pressure Air Temp Water Temp Dewpoint Dewpoint Depression Visibility Wind Speed Wind Dir Waves Ship Positions

Aragonit

Last reported at 2013-Dec-30 23:17 UTC. Time now 2014-Oct-31 05:39 UTC.
Position N 36°24' E 014°20'.
Warning: this ship's position is months out of date.

Length 190 m; draft 12.8 m.

Type: Cargo ship. MMSI: 636092354.

Date/timePositionNaut miles runAvg speedWind from/ knotsBaromVisibWave heightAir tempDewpointWater temp
2013-Dec-30 23:17N 36°24' E 014°20'912.6
2013-Dec-30 22:32N 36°27' E 014°09'1712.3
2013-Dec-30 21:08N 36°33' E 013°49'812.1
2013-Dec-30 20:31N 36°36' E 013°40'5811.7
2013-Dec-30 15:32N 36°58' E 012°32'1511.5
2013-Dec-30 14:16N 37°01' E 012°15'1211.4
2013-Dec-30 13:14N 37°05' E 012°01'811.5
2013-Dec-30 12:32N 37°07' E 011°51'1111.7
2013-Dec-30 11:33N 37°12' E 011°38'1212.0
2013-Dec-30 10:31N 37°17' E 011°24'1212.3
2013-Dec-30 09:32N 37°22' E 011°10'  

Dump ship's entire track history